Etusivu
METAR-TAF:

METAR-TAF

Lentoasemat :

Antonio B. Won Patin kansainvälinen lentoasema

Hagåtña, Guam, Yhdysvallat

Leveyspiiri: 13-29N, Pituuspiiri: 144-48E, korkeus merenpinnasta: 91 m

Tämänhetkinen sää

Tämä raportti tehtiin 1 tunti ja 4 minuuttia sitten, kello 16.54 UTC
Tuuli 7 kn koillisesta
Lämpötila 27°C
Kosteus 89%
Ilmanpaine 1012 hPa
Näkyvyys: 16.1 km
selkeää

METAR: PGUM 191654Z 05007KT 10SM CLR 27/25 A2987 RMK AO2 SLP107 T02670250

Aika: 03:58 (17:58 UTC)

Sääennuste

Tämä raportti tehtiin 6 tuntia ja 26 minuuttia sitten, kello 11.32 UTC
Ennuste voimassa 19. päivästä klo 12 UTC - 20. päivään klo 18 UTC
Tuuli 9 kn idästä/koillisesta
Näkyvyys: 10 km
Hajanaisia pilviä 2000 ft:n korkeudessa
From 20. päivästä klo 0100 UTC
Tuuli 15 kn idästä/koillisesta
Näkyvyys: 10 km
Hajanaisia pilviä 2500 ft:n korkeudessa

TAF: PGUM 191132Z 1912/2018 06009KT P6SM SCT020 FM200100 07015KT P6SM SCT025

Säähavainnot ja -ennusteet yli 4000 lentoasemalta (METAR- ja TAF-raportit).

Käytössä olevat sääasemat on merkitty karttaan keltaisilla ja punaisilla pisteillä.

Aseta hiiri pisteen päälle nähdäksesi sääaseman nimen.

Klikkaa sitten nähdäksesi säähavainnot ja -ennusteet.

Kartan vaihtaminen: klikkaa mustalla rastilla varustettuja vihreitä pisteitä, niin voit zoomata sisään; viivalla varustettua vihreää pistettä, niin voit zoomata ulos tai vihreitä nuolia, niin pääset viereisille kartoille.


METAR-TAF: